sensor_id;sensor_type;location;lat;lon;timestamp;P1;durP1;ratioP1;P2;durP2;ratioP2
46487;SDS011;32202;48.780;9.204;2022-10-16T00:01:09;10.95;;;7.00;;
46487;SDS011;32202;48.780;9.204;2022-10-16T00:03:41;7.32;;;4.43;;
46487;SDS011;32202;48.780;9.204;2022-10-16T00:06:10;3.08;;;2.17;;
46487;SDS011;32202;48.780;9.204;2022-10-16T00:08:37;10.57;;;4.57;;
46487;SDS011;32202;48.780;9.204;2022-10-16T00:11:04;5.18;;;2.60;;
46487;SDS011;32202;48.780;9.204;2022-10-16T00:13:35;5.07;;;3.17;;
46487;SDS011;32202;48.780;9.204;2022-10-16T00:16:02;7.70;;;2.50;;
46487;SDS011;32202;48.780;9.204;2022-10-16T00:18:28;5.10;;;2.75;;
46487;SDS011;32202;48.780;9.204;2022-10-16T00:20:54;5.40;;;2.83;;
46487;SDS011;32202;48.780;9.204;2022-10-16T00:23:20;5.10;;;2.92;;
46487;SDS011;32202;48.780;9.204;2022-10-16T00:25:56;7.30;;;4.35;;
46487;SDS011;32202;48.780;9.204;2022-10-16T00:28:23;8.43;;;3.17;;
46487;SDS011;32202;48.780;9.204;2022-10-16T00:30:49;6.53;;;4.10;;
46487;SDS011;32202;48.780;9.204;2022-10-16T00:33:15;9.65;;;5.75;;
46487;SDS011;32202;48.780;9.204;2022-10-16T00:35:41;9.40;;;5.40;;
46487;SDS011;32202;48.780;9.204;2022-10-16T00:38:06;16.30;;;8.60;;
46487;SDS011;32202;48.780;9.204;2022-10-16T00:40:32;9.10;;;5.68;;
46487;SDS011;32202;48.780;9.204;2022-10-16T00:42:57;8.38;;;5.13;;
46487;SDS011;32202;48.780;9.204;2022-10-16T00:45:23;10.20;;;5.22;;
46487;SDS011;32202;48.780;9.204;2022-10-16T00:47:49;8.98;;;4.88;;
46487;SDS011;32202;48.780;9.204;2022-10-16T00:52:58;4.90;;;2.60;;
46487;SDS011;32202;48.780;9.204;2022-10-16T00:55:26;4.40;;;2.78;;
46487;SDS011;32202;48.780;9.204;2022-10-16T00:57:55;9.20;;;5.43;;
46487;SDS011;32202;48.780;9.204;2022-10-16T01:00:22;7.88;;;3.70;;
46487;SDS011;32202;48.780;9.204;2022-10-16T01:02:57;5.07;;;2.42;;
46487;SDS011;32202;48.780;9.204;2022-10-16T01:05:44;5.70;;;2.90;;
46487;SDS011;32202;48.780;9.204;2022-10-16T01:08:19;4.20;;;2.20;;
46487;SDS011;32202;48.780;9.204;2022-10-16T01:11:06;1.98;;;1.48;;
46487;SDS011;32202;48.780;9.204;2022-10-16T01:13:42;2.47;;;1.70;;
46487;SDS011;32202;48.780;9.204;2022-10-16T01:16:16;3.83;;;2.08;;
46487;SDS011;32202;48.780;9.204;2022-10-16T01:18:52;4.30;;;2.85;;
46487;SDS011;32202;48.780;9.204;2022-10-16T01:21:22;4.78;;;2.55;;
46487;SDS011;32202;48.780;9.204;2022-10-16T01:29:56;3.85;;;1.80;;
46487;SDS011;32202;48.780;9.204;2022-10-16T01:35:52;6.65;;;3.17;;
46487;SDS011;32202;48.780;9.204;2022-10-16T01:38:36;6.50;;;3.15;;
46487;SDS011;32202;48.780;9.204;2022-10-16T01:41:08;5.15;;;3.30;;
46487;SDS011;32202;48.780;9.204;2022-10-16T01:43:39;6.97;;;3.90;;
46487;SDS011;32202;48.780;9.204;2022-10-16T01:46:08;7.38;;;3.83;;
46487;SDS011;32202;48.780;9.204;2022-10-16T01:48:35;5.47;;;3.13;;
46487;SDS011;32202;48.780;9.204;2022-10-16T01:51:11;10.65;;;5.50;;
46487;SDS011;32202;48.780;9.204;2022-10-16T01:53:41;5.55;;;3.13;;
46487;SDS011;32202;48.780;9.204;2022-10-16T01:56:11;9.60;;;6.03;;
46487;SDS011;32202;48.780;9.204;2022-10-16T01:58:48;16.70;;;9.68;;
46487;SDS011;32202;48.780;9.204;2022-10-16T02:01:18;21.25;;;13.77;;
46487;SDS011;32202;48.780;9.204;2022-10-16T02:03:48;12.45;;;7.68;;
46487;SDS011;32202;48.780;9.204;2022-10-16T02:06:18;6.95;;;2.47;;
46487;SDS011;32202;48.780;9.204;2022-10-16T02:08:45;6.15;;;3.25;;
46487;SDS011;32202;48.780;9.204;2022-10-16T02:11:11;7.55;;;4.40;;
46487;SDS011;32202;48.780;9.204;2022-10-16T02:13:38;9.15;;;5.38;;
46487;SDS011;32202;48.780;9.204;2022-10-16T02:16:32;11.60;;;4.80;;
46487;SDS011;32202;48.780;9.204;2022-10-16T02:18:59;6.30;;;3.97;;
46487;SDS011;32202;48.780;9.204;2022-10-16T02:21:28;5.00;;;3.53;;
46487;SDS011;32202;48.780;9.204;2022-10-16T02:24:08;10.88;;;6.20;;
46487;SDS011;32202;48.780;9.204;2022-10-16T02:26:51;6.45;;;3.80;;
46487;SDS011;32202;48.780;9.204;2022-10-16T02:29:22;9.32;;;5.63;;
46487;SDS011;32202;48.780;9.204;2022-10-16T02:31:51;15.90;;;9.55;;
46487;SDS011;32202;48.780;9.204;2022-10-16T02:34:20;15.40;;;10.30;;
46487;SDS011;32202;48.780;9.204;2022-10-16T02:36:47;15.48;;;10.15;;
46487;SDS011;32202;48.780;9.204;2022-10-16T02:39:14;11.57;;;7.35;;
46487;SDS011;32202;48.780;9.204;2022-10-16T02:41:41;8.13;;;4.50;;
46487;SDS011;32202;48.780;9.204;2022-10-16T02:44:07;11.38;;;6.93;;
46487;SDS011;32202;48.780;9.204;2022-10-16T02:46:33;22.48;;;15.02;;
46487;SDS011;32202;48.780;9.204;2022-10-16T02:48:58;15.30;;;9.27;;
46487;SDS011;32202;48.780;9.204;2022-10-16T02:51:24;7.18;;;4.28;;
46487;SDS011;32202;48.780;9.204;2022-10-16T02:53:49;12.77;;;8.00;;
46487;SDS011;32202;48.780;9.204;2022-10-16T02:56:15;10.82;;;6.15;;
46487;SDS011;32202;48.780;9.204;2022-10-16T02:58:40;34.58;;;23.77;;
46487;SDS011;32202;48.780;9.204;2022-10-16T03:01:06;19.02;;;12.15;;
46487;SDS011;32202;48.780;9.204;2022-10-16T03:03:32;12.10;;;7.78;;
46487;SDS011;32202;48.780;9.204;2022-10-16T03:05:58;10.68;;;6.15;;
46487;SDS011;32202;48.780;9.204;2022-10-16T03:08:24;21.35;;;14.18;;
46487;SDS011;32202;48.780;9.204;2022-10-16T03:10:50;7.53;;;4.63;;
46487;SDS011;32202;48.780;9.204;2022-10-16T03:13:16;16.38;;;11.02;;
46487;SDS011;32202;48.780;9.204;2022-10-16T03:15:41;16.27;;;10.60;;
46487;SDS011;32202;48.780;9.204;2022-10-16T03:18:07;13.68;;;8.40;;
46487;SDS011;32202;48.780;9.204;2022-10-16T03:20:32;33.03;;;21.52;;
46487;SDS011;32202;48.780;9.204;2022-10-16T03:22:58;17.77;;;12.15;;
46487;SDS011;32202;48.780;9.204;2022-10-16T03:25:24;11.38;;;7.32;;
46487;SDS011;32202;48.780;9.204;2022-10-16T03:27:49;18.30;;;6.35;;
46487;SDS011;32202;48.780;9.204;2022-10-16T03:30:15;9.23;;;5.10;;
46487;SDS011;32202;48.780;9.204;2022-10-16T03:32:41;41.50;;;26.95;;
46487;SDS011;32202;48.780;9.204;2022-10-16T03:35:08;15.55;;;9.50;;
46487;SDS011;32202;48.780;9.204;2022-10-16T03:37:34;111.88;;;75.82;;
46487;SDS011;32202;48.780;9.204;2022-10-16T03:39:59;191.70;;;130.15;;
46487;SDS011;32202;48.780;9.204;2022-10-16T03:42:25;167.27;;;115.53;;
46487;SDS011;32202;48.780;9.204;2022-10-16T03:44:51;143.02;;;97.38;;
46487;SDS011;32202;48.780;9.204;2022-10-16T03:47:16;89.18;;;59.70;;
46487;SDS011;32202;48.780;9.204;2022-10-16T03:49:46;22.83;;;15.47;;
46487;SDS011;32202;48.780;9.204;2022-10-16T03:52:12;30.20;;;17.50;;
46487;SDS011;32202;48.780;9.204;2022-10-16T03:54:38;21.77;;;14.27;;
46487;SDS011;32202;48.780;9.204;2022-10-16T03:57:03;11.30;;;7.30;;
46487;SDS011;32202;48.780;9.204;2022-10-16T03:59:29;6.57;;;3.38;;
46487;SDS011;32202;48.780;9.204;2022-10-16T04:01:54;6.60;;;2.88;;
46487;SDS011;32202;48.780;9.204;2022-10-16T04:04:20;4.38;;;2.63;;
46487;SDS011;32202;48.780;9.204;2022-10-16T04:06:45;5.78;;;2.70;;
46487;SDS011;32202;48.780;9.204;2022-10-16T04:09:11;4.70;;;2.50;;
46487;SDS011;32202;48.780;9.204;2022-10-16T04:11:36;9.07;;;1.98;;
46487;SDS011;32202;48.780;9.204;2022-10-16T04:14:02;3.17;;;1.90;;
46487;SDS011;32202;48.780;9.204;2022-10-16T04:16:28;3.30;;;1.90;;
46487;SDS011;32202;48.780;9.204;2022-10-16T04:18:53;3.08;;;1.95;;
46487;SDS011;32202;48.780;9.204;2022-10-16T04:21:19;5.60;;;2.13;;
46487;SDS011;32202;48.780;9.204;2022-10-16T04:23:44;6.93;;;2.67;;
46487;SDS011;32202;48.780;9.204;2022-10-16T04:26:10;4.13;;;2.40;;
46487;SDS011;32202;48.780;9.204;2022-10-16T04:28:36;5.80;;;2.22;;
46487;SDS011;32202;48.780;9.204;2022-10-16T04:31:05;6.68;;;3.05;;
46487;SDS011;32202;48.780;9.204;2022-10-16T04:33:31;4.73;;;2.57;;
46487;SDS011;32202;48.780;9.204;2022-10-16T04:35:57;3.38;;;2.17;;
46487;SDS011;32202;48.780;9.204;2022-10-16T04:38:24;4.30;;;2.17;;
46487;SDS011;32202;48.780;9.204;2022-10-16T04:40:50;5.18;;;2.10;;
46487;SDS011;32202;48.780;9.204;2022-10-16T04:43:16;3.17;;;1.63;;
46487;SDS011;32202;48.780;9.204;2022-10-16T04:45:42;2.65;;;1.67;;
46487;SDS011;32202;48.780;9.204;2022-10-16T04:48:07;3.72;;;1.90;;
46487;SDS011;32202;48.780;9.204;2022-10-16T04:50:33;3.33;;;1.63;;
46487;SDS011;32202;48.780;9.204;2022-10-16T04:52:58;2.72;;;1.40;;
46487;SDS011;32202;48.780;9.204;2022-10-16T04:55:24;2.53;;;1.38;;
46487;SDS011;32202;48.780;9.204;2022-10-16T04:57:50;2.58;;;1.50;;
46487;SDS011;32202;48.780;9.204;2022-10-16T05:00:16;4.22;;;1.65;;
46487;SDS011;32202;48.780;9.204;2022-10-16T05:02:41;2.15;;;1.42;;
46487;SDS011;32202;48.780;9.204;2022-10-16T05:05:07;3.15;;;1.67;;
46487;SDS011;32202;48.780;9.204;2022-10-16T05:07:33;2.70;;;1.60;;
46487;SDS011;32202;48.780;9.204;2022-10-16T05:09:58;3.50;;;1.80;;
46487;SDS011;32202;48.780;9.204;2022-10-16T05:12:24;2.47;;;1.52;;
46487;SDS011;32202;48.780;9.204;2022-10-16T05:14:49;4.15;;;2.05;;
46487;SDS011;32202;48.780;9.204;2022-10-16T05:17:15;2.25;;;1.55;;
46487;SDS011;32202;48.780;9.204;2022-10-16T05:19:41;3.33;;;2.00;;
46487;SDS011;32202;48.780;9.204;2022-10-16T05:22:06;4.18;;;1.92;;
46487;SDS011;32202;48.780;9.204;2022-10-16T05:24:32;3.67;;;1.90;;
46487;SDS011;32202;48.780;9.204;2022-10-16T05:26:58;8.27;;;4.88;;
46487;SDS011;32202;48.780;9.204;2022-10-16T05:29:23;4.88;;;2.53;;
46487;SDS011;32202;48.780;9.204;2022-10-16T05:31:50;3.85;;;2.05;;
46487;SDS011;32202;48.780;9.204;2022-10-16T05:34:16;4.07;;;2.10;;
46487;SDS011;32202;48.780;9.204;2022-10-16T05:36:42;5.43;;;1.90;;
46487;SDS011;32202;48.780;9.204;2022-10-16T05:39:10;4.75;;;2.38;;
46487;SDS011;32202;48.780;9.204;2022-10-16T05:41:35;6.47;;;2.10;;
46487;SDS011;32202;48.780;9.204;2022-10-16T05:44:03;3.17;;;2.05;;
46487;SDS011;32202;48.780;9.204;2022-10-16T05:46:30;2.35;;;1.70;;
46487;SDS011;32202;48.780;9.204;2022-10-16T05:48:56;4.88;;;1.75;;
46487;SDS011;32202;48.780;9.204;2022-10-16T05:51:21;5.07;;;1.85;;
46487;SDS011;32202;48.780;9.204;2022-10-16T05:53:47;3.83;;;1.65;;
46487;SDS011;32202;48.780;9.204;2022-10-16T05:56:13;3.88;;;2.05;;
46487;SDS011;32202;48.780;9.204;2022-10-16T05:58:39;7.88;;;4.68;;
46487;SDS011;32202;48.780;9.204;2022-10-16T06:03:39;46.53;;;36.35;;
46487;SDS011;32202;48.780;9.204;2022-10-16T06:06:12;10.27;;;6.15;;
46487;SDS011;32202;48.780;9.204;2022-10-16T06:08:39;20.25;;;13.52;;
46487;SDS011;32202;48.780;9.204;2022-10-16T06:11:07;23.27;;;15.70;;
46487;SDS011;32202;48.780;9.204;2022-10-16T06:13:34;35.40;;;27.05;;
46487;SDS011;32202;48.780;9.204;2022-10-16T06:16:00;22.88;;;16.98;;
46487;SDS011;32202;48.780;9.204;2022-10-16T06:18:27;77.63;;;51.00;;
46487;SDS011;32202;48.780;9.204;2022-10-16T06:20:53;72.20;;;48.63;;
46487;SDS011;32202;48.780;9.204;2022-10-16T06:23:19;70.03;;;46.05;;
46487;SDS011;32202;48.780;9.204;2022-10-16T06:25:45;68.18;;;46.35;;
46487;SDS011;32202;48.780;9.204;2022-10-16T06:28:11;149.63;;;101.07;;
46487;SDS011;32202;48.780;9.204;2022-10-16T06:30:38;66.13;;;42.67;;
46487;SDS011;32202;48.780;9.204;2022-10-16T06:33:03;71.60;;;47.70;;
46487;SDS011;32202;48.780;9.204;2022-10-16T06:35:29;18.17;;;11.00;;
46487;SDS011;32202;48.780;9.204;2022-10-16T06:37:56;26.17;;;16.85;;
46487;SDS011;32202;48.780;9.204;2022-10-16T06:40:22;96.05;;;67.15;;
46487;SDS011;32202;48.780;9.204;2022-10-16T06:42:48;66.22;;;45.65;;
46487;SDS011;32202;48.780;9.204;2022-10-16T06:45:13;111.32;;;80.05;;
46487;SDS011;32202;48.780;9.204;2022-10-16T06:47:39;85.97;;;61.00;;
46487;SDS011;32202;48.780;9.204;2022-10-16T06:50:05;58.13;;;41.05;;
46487;SDS011;32202;48.780;9.204;2022-10-16T06:52:32;43.60;;;29.92;;
46487;SDS011;32202;48.780;9.204;2022-10-16T06:54:58;33.22;;;23.45;;
46487;SDS011;32202;48.780;9.204;2022-10-16T06:57:24;88.85;;;59.00;;
46487;SDS011;32202;48.780;9.204;2022-10-16T06:59:50;33.65;;;24.63;;
46487;SDS011;32202;48.780;9.204;2022-10-16T07:02:15;9.55;;;5.45;;
46487;SDS011;32202;48.780;9.204;2022-10-16T07:04:41;29.35;;;18.30;;
46487;SDS011;32202;48.780;9.204;2022-10-16T07:07:06;80.82;;;56.03;;
46487;SDS011;32202;48.780;9.204;2022-10-16T07:09:32;23.02;;;13.65;;
46487;SDS011;32202;48.780;9.204;2022-10-16T07:11:58;50.53;;;35.95;;
46487;SDS011;32202;48.780;9.204;2022-10-16T07:14:23;96.57;;;68.38;;
46487;SDS011;32202;48.780;9.204;2022-10-16T07:16:50;108.38;;;74.63;;
46487;SDS011;32202;48.780;9.204;2022-10-16T07:19:16;11.38;;;6.60;;
46487;SDS011;32202;48.780;9.204;2022-10-16T07:21:42;17.73;;;7.63;;
46487;SDS011;32202;48.780;9.204;2022-10-16T07:24:12;27.27;;;17.20;;
46487;SDS011;32202;48.780;9.204;2022-10-16T07:26:39;29.92;;;20.15;;
46487;SDS011;32202;48.780;9.204;2022-10-16T07:29:07;7.13;;;3.70;;
46487;SDS011;32202;48.780;9.204;2022-10-16T07:31:38;129.68;;;95.53;;
46487;SDS011;32202;48.780;9.204;2022-10-16T07:34:04;12.90;;;6.10;;
46487;SDS011;32202;48.780;9.204;2022-10-16T07:36:30;8.60;;;6.05;;
46487;SDS011;32202;48.780;9.204;2022-10-16T07:38:56;14.68;;;9.10;;
46487;SDS011;32202;48.780;9.204;2022-10-16T07:41:21;7.43;;;3.95;;
46487;SDS011;32202;48.780;9.204;2022-10-16T07:43:51;6.45;;;2.90;;
46487;SDS011;32202;48.780;9.204;2022-10-16T07:46:18;10.80;;;3.08;;
46487;SDS011;32202;48.780;9.204;2022-10-16T07:48:44;8.43;;;3.72;;
46487;SDS011;32202;48.780;9.204;2022-10-16T07:51:12;5.15;;;3.08;;
46487;SDS011;32202;48.780;9.204;2022-10-16T07:53:40;4.10;;;2.50;;
46487;SDS011;32202;48.780;9.204;2022-10-16T07:56:06;7.88;;;4.57;;
46487;SDS011;32202;48.780;9.204;2022-10-16T07:58:32;124.07;;;83.05;;
46487;SDS011;32202;48.780;9.204;2022-10-16T08:01:02;47.65;;;31.98;;
46487;SDS011;32202;48.780;9.204;2022-10-16T08:03:29;27.25;;;17.27;;
46487;SDS011;32202;48.780;9.204;2022-10-16T08:05:56;13.57;;;7.22;;
46487;SDS011;32202;48.780;9.204;2022-10-16T08:08:22;7.75;;;3.33;;
46487;SDS011;32202;48.780;9.204;2022-10-16T08:10:48;5.35;;;3.22;;
46487;SDS011;32202;48.780;9.204;2022-10-16T08:13:14;8.35;;;3.53;;
46487;SDS011;32202;48.780;9.204;2022-10-16T08:15:41;7.72;;;2.92;;
46487;SDS011;32202;48.780;9.204;2022-10-16T08:18:07;9.45;;;3.00;;
46487;SDS011;32202;48.780;9.204;2022-10-16T08:20:34;5.97;;;3.60;;
46487;SDS011;32202;48.780;9.204;2022-10-16T08:23:00;7.45;;;3.40;;
46487;SDS011;32202;48.780;9.204;2022-10-16T08:25:26;4.63;;;2.90;;
46487;SDS011;32202;48.780;9.204;2022-10-16T08:27:52;7.40;;;3.25;;
46487;SDS011;32202;48.780;9.204;2022-10-16T08:30:18;7.78;;;2.92;;
46487;SDS011;32202;48.780;9.204;2022-10-16T08:32:45;6.25;;;3.58;;
46487;SDS011;32202;48.780;9.204;2022-10-16T08:35:11;8.73;;;4.50;;
46487;SDS011;32202;48.780;9.204;2022-10-16T08:37:38;10.32;;;5.07;;
46487;SDS011;32202;48.780;9.204;2022-10-16T08:40:05;4.38;;;2.45;;
46487;SDS011;32202;48.780;9.204;2022-10-16T08:45:02;4.70;;;1.60;;
46487;SDS011;32202;48.780;9.204;2022-10-16T08:50:23;3.40;;;1.60;;
46487;SDS011;32202;48.780;9.204;2022-10-16T08:52:52;6.20;;;3.42;;
46487;SDS011;32202;48.780;9.204;2022-10-16T08:58:27;8.25;;;5.47;;
46487;SDS011;32202;48.780;9.204;2022-10-16T09:00:54;5.63;;;2.72;;
46487;SDS011;32202;48.780;9.204;2022-10-16T09:08:29;10.23;;;3.72;;
46487;SDS011;32202;48.780;9.204;2022-10-16T09:11:53;5.40;;;3.47;;
46487;SDS011;32202;48.780;9.204;2022-10-16T09:20:03;7.75;;;3.38;;
46487;SDS011;32202;48.780;9.204;2022-10-16T09:22:38;8.18;;;3.50;;
46487;SDS011;32202;48.780;9.204;2022-10-16T09:25:10;6.07;;;3.85;;
46487;SDS011;32202;48.780;9.204;2022-10-16T09:27:41;3.88;;;2.10;;
46487;SDS011;32202;48.780;9.204;2022-10-16T09:30:17;4.07;;;2.40;;
46487;SDS011;32202;48.780;9.204;2022-10-16T09:32:44;2.45;;;1.48;;
46487;SDS011;32202;48.780;9.204;2022-10-16T09:35:16;4.45;;;2.90;;
46487;SDS011;32202;48.780;9.204;2022-10-16T09:37:46;4.45;;;2.90;;
46487;SDS011;32202;48.780;9.204;2022-10-16T09:40:25;7.35;;;3.55;;
46487;SDS011;32202;48.780;9.204;2022-10-16T09:42:57;1.98;;;1.40;;
46487;SDS011;32202;48.780;9.204;2022-10-16T09:45:30;4.85;;;2.97;;
46487;SDS011;32202;48.780;9.204;2022-10-16T09:47:56;4.63;;;2.00;;
46487;SDS011;32202;48.780;9.204;2022-10-16T09:50:24;6.13;;;2.10;;
46487;SDS011;32202;48.780;9.204;2022-10-16T09:53:05;6.88;;;2.00;;
46487;SDS011;32202;48.780;9.204;2022-10-16T09:55:47;7.78;;;4.40;;
46487;SDS011;32202;48.780;9.204;2022-10-16T09:58:17;10.02;;;5.93;;
46487;SDS011;32202;48.780;9.204;2022-10-16T10:00:49;6.85;;;3.00;;
46487;SDS011;32202;48.780;9.204;2022-10-16T10:06:07;7.75;;;1.50;;
46487;SDS011;32202;48.780;9.204;2022-10-16T10:08:40;4.00;;;2.35;;
46487;SDS011;32202;48.780;9.204;2022-10-16T10:11:05;6.57;;;3.03;;
46487;SDS011;32202;48.780;9.204;2022-10-16T10:13:31;3.92;;;2.00;;
46487;SDS011;32202;48.780;9.204;2022-10-16T10:15:56;3.53;;;1.30;;
46487;SDS011;32202;48.780;9.204;2022-10-16T10:18:22;3.50;;;1.30;;
46487;SDS011;32202;48.780;9.204;2022-10-16T10:20:58;3.28;;;1.60;;
46487;SDS011;32202;48.780;9.204;2022-10-16T10:23:26;3.83;;;2.38;;
46487;SDS011;32202;48.780;9.204;2022-10-16T10:28:52;2.90;;;2.13;;
46487;SDS011;32202;48.780;9.204;2022-10-16T10:32:43;3.97;;;2.40;;
46487;SDS011;32202;48.780;9.204;2022-10-16T10:34:56;3.00;;;2.00;;
46487;SDS011;32202;48.780;9.204;2022-10-16T10:40:48;3.78;;;1.73;;
46487;SDS011;32202;48.780;9.204;2022-10-16T10:43:28;4.47;;;3.00;;
46487;SDS011;32202;48.780;9.204;2022-10-16T10:46:00;4.20;;;2.47;;
46487;SDS011;32202;48.780;9.204;2022-10-16T10:48:42;2.92;;;1.90;;
46487;SDS011;32202;48.780;9.204;2022-10-16T10:51:22;3.10;;;1.63;;
46487;SDS011;32202;48.780;9.204;2022-10-16T10:57:00;5.50;;;3.17;;
46487;SDS011;32202;48.780;9.204;2022-10-16T10:59:52;3.95;;;2.47;;
46487;SDS011;32202;48.780;9.204;2022-10-16T11:05:30;8.73;;;5.18;;
46487;SDS011;32202;48.780;9.204;2022-10-16T11:08:18;3.42;;;1.67;;
46487;SDS011;32202;48.780;9.204;2022-10-16T11:16:14;6.22;;;3.92;;
46487;SDS011;32202;48.780;9.204;2022-10-16T11:21:19;9.73;;;4.75;;
46487;SDS011;32202;48.780;9.204;2022-10-16T11:26:26;14.80;;;13.23;;
46487;SDS011;32202;48.780;9.204;2022-10-16T11:28:56;11.85;;;9.90;;
46487;SDS011;32202;48.780;9.204;2022-10-16T11:34:01;9.80;;;5.78;;
46487;SDS011;32202;48.780;9.204;2022-10-16T11:37:01;3.90;;;1.20;;
46487;SDS011;32202;48.780;9.204;2022-10-16T11:39:39;4.40;;;1.85;;
46487;SDS011;32202;48.780;9.204;2022-10-16T11:42:21;6.03;;;1.50;;
46487;SDS011;32202;48.780;9.204;2022-10-16T11:47:39;2.58;;;1.60;;
46487;SDS011;32202;48.780;9.204;2022-10-16T11:55:41;7.18;;;5.47;;
46487;SDS011;32202;48.780;9.204;2022-10-16T12:00:39;3.15;;;1.40;;
46487;SDS011;32202;48.780;9.204;2022-10-16T12:03:38;3.63;;;1.52;;
46487;SDS011;32202;48.780;9.204;2022-10-16T12:06:43;2.80;;;1.52;;
46487;SDS011;32202;48.780;9.204;2022-10-16T12:09:24;2.83;;;1.10;;
46487;SDS011;32202;48.780;9.204;2022-10-16T12:11:52;1.85;;;1.17;;
46487;SDS011;32202;48.780;9.204;2022-10-16T12:14:22;4.13;;;1.75;;
46487;SDS011;32202;48.780;9.204;2022-10-16T12:17:00;3.88;;;1.00;;
46487;SDS011;32202;48.780;9.204;2022-10-16T12:19:30;1.80;;;1.63;;
46487;SDS011;32202;48.780;9.204;2022-10-16T12:22:01;3.47;;;2.28;;
46487;SDS011;32202;48.780;9.204;2022-10-16T12:24:38;5.53;;;3.67;;
46487;SDS011;32202;48.780;9.204;2022-10-16T12:27:18;3.50;;;2.67;;
46487;SDS011;32202;48.780;9.204;2022-10-16T12:29:54;6.28;;;2.80;;
46487;SDS011;32202;48.780;9.204;2022-10-16T12:34:55;2.08;;;1.30;;
46487;SDS011;32202;48.780;9.204;2022-10-16T12:37:29;3.20;;;1.48;;
46487;SDS011;32202;48.780;9.204;2022-10-16T12:40:11;5.03;;;1.98;;
46487;SDS011;32202;48.780;9.204;2022-10-16T12:45:24;5.47;;;4.10;;
46487;SDS011;32202;48.780;9.204;2022-10-16T12:47:51;2.83;;;1.50;;
46487;SDS011;32202;48.780;9.204;2022-10-16T12:53:01;5.00;;;1.80;;
46487;SDS011;32202;48.780;9.204;2022-10-16T12:55:34;2.92;;;1.63;;
46487;SDS011;32202;48.780;9.204;2022-10-16T13:00:57;3.03;;;2.28;;
46487;SDS011;32202;48.780;9.204;2022-10-16T13:03:41;2.55;;;1.60;;
46487;SDS011;32202;48.780;9.204;2022-10-16T13:09:05;3.47;;;1.20;;
46487;SDS011;32202;48.780;9.204;2022-10-16T13:11:57;4.47;;;1.60;;
46487;SDS011;32202;48.780;9.204;2022-10-16T13:19:51;3.13;;;2.08;;
46487;SDS011;32202;48.780;9.204;2022-10-16T13:22:32;7.97;;;4.40;;
46487;SDS011;32202;48.780;9.204;2022-10-16T13:28:29;4.00;;;2.00;;
46487;SDS011;32202;48.780;9.204;2022-10-16T13:30:53;5.38;;;1.80;;
46487;SDS011;32202;48.780;9.204;2022-10-16T13:35:56;2.53;;;1.45;;
46487;SDS011;32202;48.780;9.204;2022-10-16T13:38:23;3.03;;;1.83;;
46487;SDS011;32202;48.780;9.204;2022-10-16T13:40:59;2.95;;;1.38;;
46487;SDS011;32202;48.780;9.204;2022-10-16T13:43:40;8.23;;;4.13;;
46487;SDS011;32202;48.780;9.204;2022-10-16T13:46:16;5.15;;;3.50;;
46487;SDS011;32202;48.780;9.204;2022-10-16T13:48:43;5.70;;;2.47;;
46487;SDS011;32202;48.780;9.204;2022-10-16T13:51:14;4.25;;;3.03;;
46487;SDS011;32202;48.780;9.204;2022-10-16T13:53:41;3.63;;;2.67;;
46487;SDS011;32202;48.780;9.204;2022-10-16T13:56:10;4.70;;;2.28;;
46487;SDS011;32202;48.780;9.204;2022-10-16T13:58:37;3.28;;;2.10;;
46487;SDS011;32202;48.780;9.204;2022-10-16T14:01:04;20.02;;;16.55;;
46487;SDS011;32202;48.780;9.204;2022-10-16T14:03:39;13.50;;;10.32;;
46487;SDS011;32202;48.780;9.204;2022-10-16T14:06:10;16.80;;;13.48;;
46487;SDS011;32202;48.780;9.204;2022-10-16T14:08:44;3.70;;;2.75;;
46487;SDS011;32202;48.780;9.204;2022-10-16T14:11:13;20.88;;;16.58;;
46487;SDS011;32202;48.780;9.204;2022-10-16T14:13:47;19.40;;;14.20;;
46487;SDS011;32202;48.780;9.204;2022-10-16T14:16:20;34.15;;;26.33;;
46487;SDS011;32202;48.780;9.204;2022-10-16T14:18:58;14.55;;;10.32;;
46487;SDS011;32202;48.780;9.204;2022-10-16T14:21:31;16.05;;;9.98;;
46487;SDS011;32202;48.780;9.204;2022-10-16T14:23:58;22.38;;;17.88;;
46487;SDS011;32202;48.780;9.204;2022-10-16T14:26:25;84.15;;;65.75;;
46487;SDS011;32202;48.780;9.204;2022-10-16T14:31:42;5.00;;;3.20;;
46487;SDS011;32202;48.780;9.204;2022-10-16T14:34:24;3.95;;;2.03;;
46487;SDS011;32202;48.780;9.204;2022-10-16T14:36:55;5.60;;;2.33;;
46487;SDS011;32202;48.780;9.204;2022-10-16T14:39:21;10.30;;;3.20;;
46487;SDS011;32202;48.780;9.204;2022-10-16T14:41:49;3.25;;;2.28;;
46487;SDS011;32202;48.780;9.204;2022-10-16T14:44:17;5.90;;;3.67;;
46487;SDS011;32202;48.780;9.204;2022-10-16T14:46:44;12.52;;;7.60;;
46487;SDS011;32202;48.780;9.204;2022-10-16T14:51:40;27.40;;;15.73;;
46487;SDS011;32202;48.780;9.204;2022-10-16T14:54:08;14.57;;;6.68;;
46487;SDS011;32202;48.780;9.204;2022-10-16T14:56:53;4.78;;;2.60;;
46487;SDS011;32202;48.780;9.204;2022-10-16T14:59:28;8.02;;;4.70;;
46487;SDS011;32202;48.780;9.204;2022-10-16T15:01:58;7.85;;;2.67;;
46487;SDS011;32202;48.780;9.204;2022-10-16T15:04:24;3.30;;;1.90;;
46487;SDS011;32202;48.780;9.204;2022-10-16T15:06:50;9.20;;;3.30;;
46487;SDS011;32202;48.780;9.204;2022-10-16T15:09:15;5.63;;;3.70;;
46487;SDS011;32202;48.780;9.204;2022-10-16T15:11:41;3.85;;;2.88;;
46487;SDS011;32202;48.780;9.204;2022-10-16T15:14:09;4.55;;;2.63;;
46487;SDS011;32202;48.780;9.204;2022-10-16T15:16:37;4.20;;;2.80;;
46487;SDS011;32202;48.780;9.204;2022-10-16T15:19:02;3.65;;;2.55;;
46487;SDS011;32202;48.780;9.204;2022-10-16T15:21:29;9.05;;;4.72;;
46487;SDS011;32202;48.780;9.204;2022-10-16T15:23:57;7.60;;;4.85;;
46487;SDS011;32202;48.780;9.204;2022-10-16T15:26:27;11.68;;;7.25;;
46487;SDS011;32202;48.780;9.204;2022-10-16T15:31:19;10.52;;;3.85;;
46487;SDS011;32202;48.780;9.204;2022-10-16T15:33:48;7.68;;;4.00;;
46487;SDS011;32202;48.780;9.204;2022-10-16T15:36:24;11.20;;;4.15;;
46487;SDS011;32202;48.780;9.204;2022-10-16T15:38:53;6.97;;;4.03;;
46487;SDS011;32202;48.780;9.204;2022-10-16T15:41:20;8.52;;;3.20;;
46487;SDS011;32202;48.780;9.204;2022-10-16T15:43:47;5.93;;;3.72;;
46487;SDS011;32202;48.780;9.204;2022-10-16T15:46:14;7.40;;;4.20;;
46487;SDS011;32202;48.780;9.204;2022-10-16T15:48:42;7.75;;;4.00;;
46487;SDS011;32202;48.780;9.204;2022-10-16T15:51:08;8.50;;;3.85;;
46487;SDS011;32202;48.780;9.204;2022-10-16T15:53:34;9.43;;;3.80;;
46487;SDS011;32202;48.780;9.204;2022-10-16T15:56:01;6.53;;;3.45;;
46487;SDS011;32202;48.780;9.204;2022-10-16T15:58:28;7.22;;;3.78;;
46487;SDS011;32202;48.780;9.204;2022-10-16T16:00:55;7.22;;;3.25;;
46487;SDS011;32202;48.780;9.204;2022-10-16T16:03:22;7.85;;;3.67;;
46487;SDS011;32202;48.780;9.204;2022-10-16T16:05:48;7.72;;;4.43;;
46487;SDS011;32202;48.780;9.204;2022-10-16T16:08:13;8.88;;;5.30;;
46487;SDS011;32202;48.780;9.204;2022-10-16T16:10:39;10.20;;;4.70;;
46487;SDS011;32202;48.780;9.204;2022-10-16T16:13:05;7.72;;;4.00;;
46487;SDS011;32202;48.780;9.204;2022-10-16T16:15:31;9.68;;;4.47;;
46487;SDS011;32202;48.780;9.204;2022-10-16T16:17:57;9.75;;;4.32;;
46487;SDS011;32202;48.780;9.204;2022-10-16T16:20:22;9.00;;;4.90;;
46487;SDS011;32202;48.780;9.204;2022-10-16T16:22:48;12.10;;;5.90;;
46487;SDS011;32202;48.780;9.204;2022-10-16T16:25:14;8.75;;;3.95;;
46487;SDS011;32202;48.780;9.204;2022-10-16T16:27:39;7.88;;;3.25;;
46487;SDS011;32202;48.780;9.204;2022-10-16T16:30:06;5.75;;;3.40;;
46487;SDS011;32202;48.780;9.204;2022-10-16T16:32:32;5.35;;;3.17;;
46487;SDS011;32202;48.780;9.204;2022-10-16T16:34:59;5.53;;;3.35;;
46487;SDS011;32202;48.780;9.204;2022-10-16T16:37:25;5.53;;;3.50;;
46487;SDS011;32202;48.780;9.204;2022-10-16T16:39:50;7.72;;;3.90;;